Time,TemperatureF,DewpointF,PressureIn,WindDirection,WindDirectionDegrees,WindSpeedMPH,WindSpeedGustMPH,Humidity,HourlyPrecipIn,Conditions,Clouds,dailyrainin,SoftwareType,DateUTC
2013-03-27 00:02:00,53.0,-99.9,29.98,WSW,246,2.0,3.0,-999,-99.99,,,-99.99,,2013-03-27 07:02:00,
2013-03-27 00:12:00,53.0,-99.9,29.98,SW,229,3.0,4.0,-999,-99.99,,,-99.99,,2013-03-27 07:12:00,
2013-03-27 00:22:00,53.0,-99.9,29.98,WSW,244,3.0,4.0,-999,-99.99,,,-99.99,,2013-03-27 07:22:00,
2013-03-27 00:32:00,53.0,-99.9,29.98,SSW,204,4.0,6.0,-999,-99.99,,,-99.99,,2013-03-27 07:32:00,
2013-03-27 00:43:00,53.0,-99.9,29.98,SSW,204,4.0,6.0,-999,-99.99,,,-99.99,,2013-03-27 07:43:00,
2013-03-27 00:54:00,52.0,-99.9,29.98,WSW,241,1.0,4.0,-999,-99.99,,,-99.99,,2013-03-27 07:54:00,
2013-03-27 01:02:00,52.0,-99.9,29.98,SSW,198,2.0,4.0,-999,-99.99,,,-99.99,,2013-03-27 08:02:00,
2013-03-27 01:13:00,52.0,-99.9,29.98,South,188,4.0,6.0,-999,-99.99,,,-99.99,,2013-03-27 08:13:00,
2013-03-27 01:22:00,52.0,-99.9,29.98,South,186,5.0,7.0,-999,-99.99,,,-99.99,,2013-03-27 08:22:00,
2013-03-27 01:32:00,52.0,-99.9,29.98,South,173,4.0,7.0,-999,-99.99,,,-99.99,,2013-03-27 08:32:00,
2013-03-27 01:43:00,52.0,-99.9,29.98,West,274,3.0,6.0,-999,-99.99,,,-99.99,,2013-03-27 08:43:00,
2013-03-27 01:52:00,51.0,-99.9,29.98,WNW,295,4.0,5.0,-999,-99.99,,,-99.99,,2013-03-27 08:52:00,
2013-03-27 02:02:00,51.0,-99.9,29.98,West,261,2.0,5.0,-999,-99.99,,,-99.99,,2013-03-27 09:02:00,
2013-03-27 02:12:00,51.0,-99.9,29.98,WSW,247,3.0,5.0,-999,-99.99,,,-99.99,,2013-03-27 09:12:00,
2013-03-27 02:22:00,52.0,-99.9,29.98,West,262,2.0,6.0,-999,-99.99,,,-99.99,,2013-03-27 09:22:00,
2013-03-27 02:33:00,52.0,-99.9,29.97,WSW,245,3.0,6.0,-999,-99.99,,,-99.99,,2013-03-27 09:33:00,
2013-03-27 02:42:00,52.0,-99.9,29.97,WSW,245,3.0,6.0,-999,-99.99,,,-99.99,,2013-03-27 09:42:00,
2013-03-27 02:52:00,52.0,-99.9,29.97,SW,219,3.0,5.0,-999,-99.99,,,-99.99,,2013-03-27 09:52:00,
2013-03-27 03:03:00,52.0,-99.9,29.96,SSE,151,2.0,4.0,-999,-99.99,,,-99.99,,2013-03-27 10:03:00,
2013-03-27 03:13:00,52.0,-99.9,29.96,South,169,5.0,8.0,-999,-99.99,,,-99.99,,2013-03-27 10:13:00,
2013-03-27 03:23:00,52.0,-99.9,29.96,SSE,165,5.0,7.0,-999,-99.99,,,-99.99,,2013-03-27 10:23:00,
2013-03-27 03:32:00,51.0,-99.9,29.96,SSE,158,5.0,7.0,-999,-99.99,,,-99.99,,2013-03-27 10:32:00,
2013-03-27 03:42:00,52.0,-99.9,29.96,SSE,165,4.0,7.0,-999,-99.99,,,-99.99,,2013-03-27 10:42:00,
2013-03-27 03:53:00,52.0,-99.9,29.96,SSE,165,3.0,5.0,-999,-99.99,,,-99.99,,2013-03-27 10:53:00,
2013-03-27 04:03:00,52.0,-99.9,29.96,SSW,200,5.0,7.0,-999,-99.99,,,-99.99,,2013-03-27 11:03:00,
2013-03-27 04:12:00,52.0,-99.9,29.96,SSW,192,4.0,8.0,-999,-99.99,,,-99.99,,2013-03-27 11:12:00,
2013-03-27 04:22:00,52.0,-99.9,29.96,SSW,195,4.0,7.0,-999,-99.99,,,-99.99,,2013-03-27 11:22:00,
2013-03-27 04:32:00,52.0,-99.9,29.96,South,191,4.0,6.0,-999,-99.99,,,-99.99,,2013-03-27 11:32:00,
2013-03-27 04:43:00,52.0,-99.9,29.96,South,181,4.0,7.0,-999,-99.99,,,-99.99,,2013-03-27 11:43:00,
2013-03-27 04:53:00,52.0,-99.9,29.96,SSW,193,4.0,7.0,-999,-99.99,,,-99.99,,2013-03-27 11:53:00,
2013-03-27 05:02:00,52.0,-99.9,29.96,SSW,194,4.0,6.0,-999,-99.99,,,-99.99,,2013-03-27 12:02:00,
2013-03-27 05:12:00,52.0,-99.9,29.96,SSE,168,4.0,6.0,-999,-99.99,,,-99.99,,2013-03-27 12:12:00,
2013-03-27 05:23:00,52.0,-99.9,29.96,South,172,4.0,6.0,-999,-99.99,,,-99.99,,2013-03-27 12:23:00,
2013-03-27 05:32:00,52.0,-99.9,29.96,SSE,161,5.0,6.0,-999,-99.99,,,-99.99,,2013-03-27 12:32:00,
2013-03-27 05:44:00,52.0,-99.9,29.96,SSE,163,5.0,6.0,-999,-99.99,,,-99.99,,2013-03-27 12:44:00,
2013-03-27 05:52:00,52.0,-99.9,29.96,South,178,3.0,6.0,-999,-99.99,,,-99.99,,2013-03-27 12:52:00,
2013-03-27 06:02:00,52.0,-99.9,29.96,SSE,163,4.0,6.0,-999,-99.99,,,-99.99,,2013-03-27 13:02:00,
2013-03-27 06:12:00,52.0,-99.9,29.96,SSE,164,4.0,8.0,-999,-99.99,,,-99.99,,2013-03-27 13:12:00,
2013-03-27 06:23:00,52.0,-99.9,29.96,SSE,165,3.0,5.0,-999,-99.99,,,-99.99,,2013-03-27 13:23:00,
2013-03-27 06:33:00,53.0,-99.9,29.96,South,189,5.0,7.0,-999,-99.99,,,-99.99,,2013-03-27 13:33:00,
2013-03-27 06:42:00,52.0,-99.9,29.96,SSW,202,6.0,9.0,-999,-99.99,,,-99.99,,2013-03-27 13:42:00,
2013-03-27 06:53:00,52.0,-99.9,29.96,SSW,210,5.0,8.0,-999,-99.99,,,-99.99,,2013-03-27 13:53:00,
2013-03-27 07:02:00,52.0,-99.9,29.96,SSW,210,5.0,8.0,-999,-99.99,,,-99.99,,2013-03-27 14:02:00,
2013-03-27 07:12:00,52.0,-99.9,29.96,SSW,203,5.0,8.0,-999,-99.99,,,-99.99,,2013-03-27 14:12:00,
2013-03-27 07:22:00,52.0,-99.9,29.96,SSW,198,4.0,6.0,-999,-99.99,,,-99.99,,2013-03-27 14:22:00,
2013-03-27 07:32:00,52.0,-99.9,29.96,SSW,200,6.0,7.0,-999,-99.99,,,-99.99,,2013-03-27 14:32:00,
2013-03-27 07:42:00,52.0,-99.9,29.96,SSW,200,6.0,7.0,-999,-99.99,,,-99.99,,2013-03-27 14:42:00,
2013-03-27 07:52:00,52.0,-99.9,29.96,SSW,201,5.0,9.0,-999,-99.99,,,-99.99,,2013-03-27 14:52:00,
2013-03-27 08:03:00,53.0,-99.9,29.96,South,170,3.0,5.0,-999,-99.99,,,-99.99,,2013-03-27 15:03:00,
2013-03-27 08:12:00,53.0,-99.9,29.97,SSE,165,5.0,7.0,-999,-99.99,,,-99.99,,2013-03-27 15:12:00,
2013-03-27 08:23:00,53.0,-99.9,29.97,SSE,162,3.0,5.0,-999,-99.99,,,-99.99,,2013-03-27 15:23:00,
2013-03-27 08:33:00,53.0,-99.9,29.97,SSE,152,3.0,4.0,-999,-99.99,,,-99.99,,2013-03-27 15:33:00,
2013-03-27 08:43:00,53.0,-99.9,29.97,SSE,163,3.0,4.0,-999,-99.99,,,-99.99,,2013-03-27 15:43:00,
2013-03-27 08:53:00,54.0,-99.9,29.97,SSE,166,6.0,8.0,-999,-99.99,,,-99.99,,2013-03-27 15:53:00,
2013-03-27 09:03:00,54.0,-99.9,29.97,SSE,168,4.0,7.0,-999,-99.99,,,-99.99,,2013-03-27 16:03:00,
2013-03-27 09:13:00,54.0,-99.9,29.98,SSE,159,3.0,4.0,-999,-99.99,,,-99.99,,2013-03-27 16:13:00,
2013-03-27 09:23:00,54.0,-99.9,29.98,SSE,168,4.0,5.0,-999,-99.99,,,-99.99,,2013-03-27 16:23:00,
2013-03-27 09:33:00,54.0,-99.9,29.98,SSE,154,3.0,5.0,-999,-99.99,,,-99.99,,2013-03-27 16:33:00,
2013-03-27 09:42:00,54.0,-99.9,29.98,SSE,152,3.0,5.0,-999,-99.99,,,-99.99,,2013-03-27 16:42:00,
2013-03-27 09:52:00,55.0,-99.9,29.98,SSE,150,3.0,5.0,-999,-99.99,,,-99.99,,2013-03-27 16:52:00,
2013-03-27 10:03:00,55.0,-99.9,29.98,SSE,152,3.0,5.0,-999,-99.99,,,-99.99,,2013-03-27 17:03:00,
2013-03-27 10:12:00,55.0,-99.9,29.98,SSE,158,4.0,6.0,-999,-99.99,,,-99.99,,2013-03-27 17:12:00,
2013-03-27 10:22:00,54.0,-99.9,29.98,SSE,164,5.0,6.0,-999,-99.99,,,-99.99,,2013-03-27 17:22:00,
2013-03-27 10:33:00,55.0,-99.9,29.98,SSE,161,5.0,7.0,-999,-99.99,,,-99.99,,2013-03-27 17:33:00,
2013-03-27 10:44:00,55.0,-99.9,29.99,SSE,157,4.0,6.0,-999,-99.99,,,-99.99,,2013-03-27 17:44:00,
2013-03-27 10:52:00,56.0,-99.9,29.99,SSE,156,5.0,6.0,-999,-99.99,,,-99.99,,2013-03-27 17:52:00,
2013-03-27 11:03:00,55.0,-99.9,29.99,SSE,160,6.0,7.0,-999,-99.99,,,-99.99,,2013-03-27 18:03:00,
2013-03-27 11:12:00,55.0,-99.9,29.99,SSE,157,5.0,7.0,-999,-99.99,,,-99.99,,2013-03-27 18:12:00,
2013-03-27 11:23:00,56.0,-99.9,29.99,SSE,157,6.0,7.0,-999,-99.99,,,-99.99,,2013-03-27 18:23:00,
2013-03-27 11:33:00,55.0,-99.9,29.99,SSE,164,5.0,7.0,-999,-99.99,,,-99.99,,2013-03-27 18:33:00,
2013-03-27 11:42:00,55.0,-99.9,29.99,SSE,163,6.0,7.0,-999,-99.99,,,-99.99,,2013-03-27 18:42:00,
2013-03-27 11:53:00,55.0,-99.9,29.99,SSE,164,7.0,8.0,-999,-99.99,,,-99.99,,2013-03-27 18:53:00,
2013-03-27 12:03:00,55.0,-99.9,29.99,SSE,165,8.0,9.0,-999,-99.99,,,-99.99,,2013-03-27 19:03:00,
2013-03-27 12:12:00,56.0,-99.9,29.99,SSE,164,7.0,9.0,-999,-99.99,,,-99.99,,2013-03-27 19:12:00,
2013-03-27 12:22:00,56.0,-99.9,29.99,SSE,165,5.0,7.0,-999,-99.99,,,-99.99,,2013-03-27 19:22:00,
2013-03-27 12:32:00,57.0,-99.9,29.99,SSE,161,6.0,9.0,-999,-99.99,,,-99.99,,2013-03-27 19:32:00,
2013-03-27 12:42:00,56.0,-99.9,29.99,South,188,6.0,9.0,-999,-99.99,,,-99.99,,2013-03-27 19:42:00,
2013-03-27 12:52:00,57.0,-99.9,30.00,SSW,197,6.0,10.0,-999,-99.99,,,-99.99,,2013-03-27 19:52:00,
2013-03-27 13:03:00,57.0,-99.9,30.00,SSW,197,6.0,10.0,-999,-99.99,,,-99.99,,2013-03-27 20:03:00,
2013-03-27 13:12:00,57.0,-99.9,30.00,SSW,195,6.0,9.0,-999,-99.99,,,-99.99,,2013-03-27 20:12:00,
2013-03-27 13:22:00,58.0,-99.9,29.99,SW,224,3.0,6.0,-999,-99.99,,,-99.99,,2013-03-27 20:22:00,
2013-03-27 13:32:00,59.0,-99.9,30.00,SSW,208,4.0,6.0,-999,-99.99,,,-99.99,,2013-03-27 20:32:00,
2013-03-27 13:43:00,57.0,-99.9,30.00,SSW,206,6.0,11.0,-999,-99.99,,,-99.99,,2013-03-27 20:43:00,
2013-03-27 13:52:00,58.0,-99.9,30.00,WSW,240,3.0,5.0,-999,-99.99,,,-99.99,,2013-03-27 20:52:00,
2013-03-27 14:02:00,57.0,-99.9,30.00,SSW,209,6.0,9.0,-999,-99.99,,,-99.99,,2013-03-27 21:02:00,
2013-03-27 14:12:00,57.0,-99.9,30.00,SSW,213,5.0,8.0,-999,-99.99,,,-99.99,,2013-03-27 21:12:00,
2013-03-27 14:23:00,57.0,-99.9,29.99,SW,217,4.0,6.0,-999,-99.99,,,-99.99,,2013-03-27 21:23:00,
2013-03-27 14:33:00,56.0,-99.9,29.99,WSW,257,9.0,11.0,-999,-99.99,,,-99.99,,2013-03-27 21:33:00,
2013-03-27 14:44:00,56.0,-99.9,29.99,WSW,248,8.0,11.0,-999,-99.99,,,-99.99,,2013-03-27 21:44:00,
2013-03-27 14:52:00,57.0,-99.9,29.99,SW,232,5.0,9.0,-999,-99.99,,,-99.99,,2013-03-27 21:52:00,
2013-03-27 15:03:00,57.0,-99.9,29.99,SSW,207,6.0,8.0,-999,-99.99,,,-99.99,,2013-03-27 22:03:00,
2013-03-27 15:12:00,57.0,-99.9,29.99,SSW,207,6.0,8.0,-999,-99.99,,,-99.99,,2013-03-27 22:12:00,
2013-03-27 15:23:00,56.0,-99.9,29.99,SSW,210,6.0,11.0,-999,-99.99,,,-99.99,,2013-03-27 22:23:00,
2013-03-27 15:33:00,56.0,-99.9,29.99,SSW,210,6.0,9.0,-999,-99.99,,,-99.99,,2013-03-27 22:33:00,
2013-03-27 15:43:00,56.0,-99.9,29.99,SSW,205,8.0,11.0,-999,-99.99,,,-99.99,,2013-03-27 22:43:00,
2013-03-27 15:53:00,54.0,-99.9,29.99,SSW,199,9.0,13.0,-999,-99.99,,,-99.99,,2013-03-27 22:53:00,
2013-03-27 16:03:00,54.0,-99.9,29.99,SSW,198,9.0,12.0,-999,-99.99,,,-99.99,,2013-03-27 23:03:00,
2013-03-27 16:12:00,54.0,-99.9,29.99,SSW,196,7.0,11.0,-999,-99.99,,,-99.99,,2013-03-27 23:12:00,
2013-03-27 16:22:00,54.0,-99.9,29.99,SSW,195,7.0,10.0,-999,-99.99,,,-99.99,,2013-03-27 23:22:00,
2013-03-27 16:32:00,54.0,-99.9,29.99,SSW,193,8.0,11.0,-999,-99.99,,,-99.99,,2013-03-27 23:32:00,
2013-03-27 16:43:00,54.0,-99.9,29.99,SSW,199,8.0,10.0,-999,-99.99,,,-99.99,,2013-03-27 23:43:00,
2013-03-27 16:52:00,54.0,-99.9,29.99,SSW,202,7.0,11.0,-999,-99.99,,,-99.99,,2013-03-27 23:52:00,
2013-03-27 17:02:00,55.0,-99.9,29.99,SSW,210,5.0,10.0,-999,-99.99,,,-99.99,,2013-03-28 00:02:00,
2013-03-27 17:12:00,55.0,-99.9,29.99,SSW,209,6.0,9.0,-999,-99.99,,,-99.99,,2013-03-28 00:12:00,
2013-03-27 17:22:00,55.0,-99.9,29.98,WSW,239,6.0,11.0,-999,-99.99,,,-99.99,,2013-03-28 00:22:00,
2013-03-27 17:33:00,55.0,-99.9,29.98,WSW,252,9.0,14.0,-999,-99.99,,,-99.99,,2013-03-28 00:33:00,
2013-03-27 17:43:00,55.0,-99.9,29.98,WSW,251,10.0,15.0,-999,-99.99,,,-99.99,,2013-03-28 00:43:00,
2013-03-27 17:52:00,55.0,-99.9,29.98,WSW,244,5.0,10.0,-999,-99.99,,,-99.99,,2013-03-28 00:52:00,
2013-03-27 18:02:00,54.0,-99.9,29.98,West,262,9.0,11.0,-999,-99.99,,,-99.99,,2013-03-28 01:02:00,
2013-03-27 18:12:00,54.0,-99.9,29.98,WSW,255,8.0,11.0,-999,-99.99,,,-99.99,,2013-03-28 01:12:00,
2013-03-27 18:22:00,54.0,-99.9,29.99,WSW,249,6.0,10.0,-999,-99.99,,,-99.99,,2013-03-28 01:22:00,
2013-03-27 18:32:00,54.0,-99.9,29.99,WSW,249,6.0,10.0,-999,-99.99,,,-99.99,,2013-03-28 01:32:00,
2013-03-27 18:42:00,54.0,-99.9,29.98,WSW,250,8.0,11.0,-999,-99.99,,,-99.99,,2013-03-28 01:42:00,
2013-03-27 18:53:00,55.0,-99.9,29.98,WSW,244,5.0,9.0,-999,-99.99,,,-99.99,,2013-03-28 01:53:00,
2013-03-27 19:03:00,55.0,-99.9,29.98,WSW,238,6.0,11.0,-999,-99.99,,,-99.99,,2013-03-28 02:03:00,
2013-03-27 19:12:00,55.0,-99.9,29.98,WSW,249,6.0,11.0,-999,-99.99,,,-99.99,,2013-03-28 02:12:00,
2013-03-27 19:22:00,54.0,-99.9,29.99,WSW,239,5.0,12.0,-999,-99.99,,,-99.99,,2013-03-28 02:22:00,
2013-03-27 19:33:00,54.0,-99.9,29.99,WSW,242,5.0,13.0,-999,-99.99,,,-99.99,,2013-03-28 02:33:00,
2013-03-27 19:42:00,54.0,-99.9,29.99,WSW,242,5.0,13.0,-999,-99.99,,,-99.99,,2013-03-28 02:42:00,
2013-03-27 19:52:00,54.0,-99.9,29.99,WSW,242,5.0,13.0,-999,-99.99,,,-99.99,,2013-03-28 02:52:00,
2013-03-27 20:02:00,54.0,-99.9,30.00,SW,231,4.0,9.0,-999,-99.99,,,-99.99,,2013-03-28 03:02:00,
2013-03-27 20:12:00,54.0,-99.9,30.00,SW,234,4.0,8.0,-999,-99.99,,,-99.99,,2013-03-28 03:12:00,
2013-03-27 20:22:00,54.0,-99.9,30.00,SW,226,4.0,7.0,-999,-99.99,,,-99.99,,2013-03-28 03:22:00,
2013-03-27 20:33:00,54.0,-99.9,30.00,SW,231,5.0,8.0,-999,-99.99,,,-99.99,,2013-03-28 03:33:00,
2013-03-27 20:43:00,54.0,-99.9,30.00,SW,222,5.0,9.0,-999,-99.99,,,-99.99,,2013-03-28 03:43:00,
2013-03-27 20:53:00,54.0,-99.9,30.00,SSW,208,4.0,8.0,-999,-99.99,,,-99.99,,2013-03-28 03:53:00,
2013-03-27 21:03:00,54.0,-99.9,30.00,SSW,207,5.0,8.0,-999,-99.99,,,-99.99,,2013-03-28 04:03:00,
2013-03-27 21:12:00,54.0,-99.9,30.01,SSW,208,2.0,6.0,-999,-99.99,,,-99.99,,2013-03-28 04:12:00,
2013-03-27 21:23:00,54.0,-99.9,30.01,SW,218,2.0,6.0,-999,-99.99,,,-99.99,,2013-03-28 04:23:00,
2013-03-27 21:32:00,54.0,-99.9,30.01,SSW,208,4.0,6.0,-999,-99.99,,,-99.99,,2013-03-28 04:32:00,
2013-03-27 21:42:00,54.0,-99.9,30.01,SW,228,3.0,5.0,-999,-99.99,,,-99.99,,2013-03-28 04:42:00,
2013-03-27 21:53:00,54.0,-99.9,30.01,SW,215,2.0,3.0,-999,-99.99,,,-99.99,,2013-03-28 04:53:00,
2013-03-27 22:02:00,54.0,-99.9,30.02,SW,230,1.0,5.0,-999,-99.99,,,-99.99,,2013-03-28 05:02:00,
2013-03-27 22:12:00,54.0,-99.9,30.02,SSW,209,3.0,4.0,-999,-99.99,,,-99.99,,2013-03-28 05:12:00,
2013-03-27 22:32:00,54.0,-99.9,30.02,WNW,287,0.0,2.0,-999,-99.99,,,-99.99,,2013-03-28 05:32:00,
2013-03-27 22:52:00,54.0,-99.9,30.02,West,263,4.0,5.0,-999,-99.99,,,-99.99,,2013-03-28 05:52:00,
2013-03-27 23:02:00,54.0,-99.9,30.02,WSW,244,4.0,6.0,-999,-99.99,,,-99.99,,2013-03-28 06:02:00,
2013-03-27 23:13:00,54.0,-99.9,30.02,SW,225,2.0,5.0,-999,-99.99,,,-99.99,,2013-03-28 06:13:00,
2013-03-27 23:22:00,54.0,-99.9,30.02,WSW,239,1.0,5.0,-999,-99.99,,,-99.99,,2013-03-28 06:22:00,
2013-03-27 23:33:00,54.0,-99.9,30.02,SW,225,1.0,3.0,-999,-99.99,,,-99.99,,2013-03-28 06:33:00,
2013-03-27 23:42:00,54.0,-99.9,30.02,SSW,205,2.0,3.0,-999,-99.99,,,-99.99,,2013-03-28 06:42:00,